createdAt,value
2019-05-12T00:00:43.707Z,48.43
2019-05-12T00:03:12.328Z,48.41
2019-05-12T00:05:41.173Z,47.20
2019-05-12T00:08:09.781Z,47.99
2019-05-12T00:10:38.957Z,47.59
2019-05-12T00:13:08.301Z,47.19
2019-05-12T00:15:38.519Z,47.46
2019-05-12T00:18:09.119Z,47.27
2019-05-12T00:20:38.647Z,46.47
2019-05-12T00:23:23.093Z,47.38
2019-05-12T00:25:38.746Z,49.67
2019-05-12T00:28:07.924Z,49.47
2019-05-12T00:30:39.653Z,49.73
2019-05-12T00:33:09.207Z,50.27
2019-05-12T00:35:38.339Z,49.98
2019-05-12T00:38:09.127Z,49.89
2019-05-12T00:40:39.213Z,48.40
2019-05-12T00:43:08.769Z,47.21
2019-05-12T00:45:38.557Z,47.59
2019-05-12T00:48:09.268Z,48.82
2019-05-12T00:50:38.334Z,50.17
2019-05-12T00:53:09.121Z,50.16
2019-05-12T00:55:38.232Z,49.70
2019-05-12T00:58:08.211Z,48.89
2019-05-12T01:00:40.668Z,48.11
2019-05-12T01:03:08.950Z,50.20
2019-05-12T01:05:38.283Z,48.19
2019-05-12T01:08:09.124Z,49.06
2019-05-12T01:10:38.933Z,47.93
2019-05-12T01:13:08.784Z,49.03
2019-05-12T01:15:38.084Z,49.41
2019-05-12T01:18:09.468Z,48.08
2019-05-12T01:20:38.976Z,48.95
2019-05-12T01:23:08.481Z,50.58
2019-05-12T01:25:39.419Z,48.54
2019-05-12T01:28:08.896Z,50.70
2019-05-12T01:30:38.990Z,50.46
2019-05-12T01:33:08.700Z,50.46
2019-05-12T01:35:38.719Z,48.81
2019-05-12T01:38:08.322Z,49.03
2019-05-12T01:40:39.402Z,49.07
2019-05-12T01:43:08.566Z,48.21
2019-05-12T01:45:38.179Z,50.11
2019-05-12T01:48:08.751Z,49.51
2019-05-12T01:50:38.713Z,50.15
2019-05-12T01:53:08.351Z,49.86
2019-05-12T01:55:38.570Z,49.84
2019-05-12T01:58:08.384Z,49.87
2019-05-12T02:00:38.681Z,51.54
2019-05-12T02:03:09.066Z,49.76
2019-05-12T02:05:39.872Z,48.74
2019-05-12T02:08:12.319Z,50.93
2019-05-12T02:10:40.994Z,50.78
2019-05-12T02:13:09.947Z,48.33
2019-05-12T02:15:38.611Z,49.58
2019-05-12T02:18:09.141Z,50.22
2019-05-12T02:20:38.374Z,50.34
2019-05-12T02:23:08.875Z,49.21
2019-05-12T02:25:38.241Z,50.64
2019-05-12T02:28:09.134Z,51.93
2019-05-12T02:30:41.323Z,51.34
2019-05-12T02:33:07.775Z,50.44
2019-05-12T02:35:36.369Z,52.05
2019-05-12T02:38:05.416Z,49.48
2019-05-12T02:40:34.902Z,51.43
2019-05-12T02:43:05.396Z,49.06
2019-05-12T02:45:35.610Z,49.12
2019-05-12T02:48:05.419Z,48.97
2019-05-12T02:50:36.404Z,48.12
2019-05-12T02:53:06.185Z,47.67
2019-05-12T02:55:35.946Z,49.97
2019-05-12T02:58:05.972Z,49.09
2019-05-12T03:00:35.839Z,47.40
2019-05-12T03:03:06.226Z,46.75
2019-05-12T03:05:35.821Z,45.37
2019-05-12T03:08:05.205Z,46.40
2019-05-12T03:10:36.050Z,47.07
2019-05-12T03:13:04.915Z,46.96
2019-05-12T03:15:36.540Z,45.67
2019-05-12T03:18:06.293Z,46.27
2019-05-12T03:20:35.581Z,44.89
2019-05-12T03:23:05.854Z,47.70
2019-05-12T03:25:36.466Z,47.94
2019-05-12T03:28:08.896Z,47.43
2019-05-12T03:30:39.383Z,46.50
2019-05-12T03:33:10.407Z,46.47
2019-05-12T03:35:42.281Z,46.39
2019-05-12T03:38:07.352Z,45.88
2019-05-12T03:40:38.628Z,45.88
2019-05-12T03:43:06.598Z,48.96
2019-05-12T03:45:36.227Z,46.24
2019-05-12T03:48:05.492Z,46.71
2019-05-12T03:50:35.371Z,47.42
2019-05-12T03:53:09.918Z,46.83
2019-05-12T03:55:40.429Z,47.75
2019-05-12T03:58:06.003Z,49.47
2019-05-12T04:00:35.735Z,48.04
2019-05-12T04:03:05.249Z,48.63
2019-05-12T04:05:35.144Z,47.31
2019-05-12T04:08:05.452Z,50.91
2019-05-12T04:10:35.674Z,49.97
2019-05-12T04:13:05.031Z,50.52
2019-05-12T04:15:34.976Z,51.06
2019-05-12T04:18:05.711Z,48.57
2019-05-12T04:20:35.902Z,48.92
2019-05-12T04:23:06.156Z,47.21
2019-05-12T04:25:51.740Z,47.30
2019-05-12T04:28:05.863Z,46.61
2019-05-12T04:30:35.581Z,48.36
2019-05-12T04:33:05.325Z,47.70
2019-05-12T04:35:35.275Z,48.61
2019-05-12T04:38:05.105Z,48.86
2019-05-12T04:40:35.936Z,50.36
2019-05-12T04:43:06.255Z,48.64
2019-05-12T04:45:35.403Z,49.72
2019-05-12T04:48:05.577Z,47.10
2019-05-12T04:50:35.718Z,46.06
2019-05-12T04:53:06.255Z,46.40
2019-05-12T04:55:36.250Z,48.33
2019-05-12T04:58:05.683Z,50.88
2019-05-12T05:00:35.574Z,50.33
2019-05-12T05:03:05.519Z,49.52
2019-05-12T05:05:35.727Z,49.12
2019-05-12T05:08:05.377Z,47.06
2019-05-12T05:10:34.662Z,46.50
2019-05-12T05:13:05.184Z,47.06
2019-05-12T05:15:35.120Z,45.64
2019-05-12T05:18:06.303Z,47.09
2019-05-12T05:20:34.866Z,45.98
2019-05-12T05:23:04.241Z,49.67
2019-05-12T05:25:34.166Z,46.74
2019-05-12T05:28:03.950Z,45.89
2019-05-12T05:30:33.917Z,45.21
2019-05-12T05:33:04.564Z,45.05
2019-05-12T05:35:39.008Z,44.50
2019-05-12T05:38:04.727Z,43.78
2019-05-12T05:40:35.632Z,43.82
2019-05-12T05:43:12.505Z,42.65
2019-05-12T05:45:35.202Z,44.58
2019-05-12T05:48:05.606Z,46.29
2019-05-12T05:50:34.582Z,46.32
2019-05-12T05:53:03.930Z,45.48
2019-05-12T05:55:34.288Z,45.63
2019-05-12T05:58:08.454Z,45.62
2019-05-12T06:00:38.789Z,48.09
2019-05-12T06:03:05.730Z,44.51
2019-05-12T06:05:38.468Z,45.51
2019-05-12T06:10:40.620Z,46.45
2019-05-12T06:13:09.380Z,45.26
2019-05-12T06:15:40.800Z,44.55
2019-05-12T06:18:08.815Z,48.18
2019-05-12T06:20:38.314Z,45.17
2019-05-12T06:23:07.062Z,47.25
2019-05-12T06:25:45.938Z,46.30
2019-05-12T06:28:08.722Z,44.77
2019-05-12T06:33:13.817Z,45.26
2019-05-12T06:35:45.074Z,48.61
2019-05-12T06:38:13.600Z,47.10
2019-05-12T06:40:45.415Z,46.78
2019-05-12T06:43:13.905Z,46.42
2019-05-12T06:45:45.583Z,46.37
2019-05-12T06:48:14.018Z,44.28
2019-05-12T06:50:44.162Z,42.46
2019-05-12T06:53:13.961Z,44.66
2019-05-12T06:55:43.303Z,43.13
2019-05-12T06:58:14.042Z,43.47
2019-05-12T07:00:43.745Z,44.67
2019-05-12T07:03:14.305Z,43.21
2019-05-12T07:05:45.226Z,43.21
2019-05-12T07:08:17.859Z,44.86
2019-05-12T07:10:46.833Z,43.32
2019-05-12T07:13:22.817Z,42.29
2019-05-12T07:15:44.737Z,43.27
2019-05-12T07:18:17.672Z,42.70
2019-05-12T07:20:45.302Z,41.90
2019-05-12T07:23:14.370Z,41.19
2019-05-12T07:25:44.473Z,42.72
2019-05-12T07:28:14.416Z,42.16
2019-05-12T07:30:44.165Z,39.88
2019-05-12T07:33:14.572Z,39.17
2019-05-12T07:35:44.540Z,40.25
2019-05-12T07:38:20.860Z,40.50
2019-05-12T07:40:46.387Z,41.91
2019-05-12T07:43:20.344Z,40.82
2019-05-12T07:45:47.025Z,39.68
2019-05-12T07:48:15.893Z,39.58
2019-05-12T07:50:44.537Z,39.58
2019-05-12T07:53:14.482Z,39.28
2019-05-12T07:55:47.581Z,36.54
2019-05-12T07:58:18.489Z,34.49
2019-05-12T08:00:44.419Z,32.67
2019-05-12T08:03:19.128Z,33.31
2019-05-12T08:05:44.001Z,33.57
2019-05-12T08:08:14.512Z,35.43
2019-05-12T08:10:44.337Z,35.48
2019-05-12T08:13:14.871Z,37.14
2019-05-12T08:15:45.699Z,34.95
2019-05-12T08:18:14.111Z,32.04
2019-05-12T08:20:43.524Z,28.20
2019-05-12T08:23:14.070Z,27.38
2019-05-12T08:25:43.752Z,28.77
2019-05-12T08:28:18.318Z,30.46
2019-05-12T08:30:47.391Z,31.88
2019-05-12T08:33:14.582Z,30.28
2019-05-12T08:35:44.019Z,30.57
2019-05-12T08:38:14.507Z,28.49
2019-05-12T08:40:46.449Z,28.85
2019-05-12T08:43:14.865Z,28.52
2019-05-12T08:45:44.307Z,30.18
2019-05-12T08:48:21.434Z,32.63
2019-05-12T08:50:46.169Z,30.80
2019-05-12T08:53:20.456Z,28.83
2019-05-12T08:55:44.540Z,30.87
2019-05-12T08:58:29.628Z,31.93
2019-05-12T09:00:49.746Z,33.05
2019-05-12T09:03:20.227Z,33.99
2019-05-12T09:05:45.988Z,35.22
2019-05-12T09:08:16.184Z,34.88
2019-05-12T09:10:45.253Z,35.32
2019-05-12T09:13:14.518Z,35.28
2019-05-12T09:15:43.755Z,33.56
2019-05-12T09:18:14.528Z,32.11
2019-05-12T09:20:48.799Z,27.88
2019-05-12T09:23:13.812Z,28.01
2019-05-12T09:25:45.355Z,26.08
2019-05-12T09:28:13.871Z,25.18
2019-05-12T09:30:46.044Z,27.42
2019-05-12T09:33:14.009Z,29.37
2019-05-12T09:35:43.733Z,27.65
2019-05-12T09:38:21.284Z,25.69
2019-05-12T09:40:43.878Z,24.65
2019-05-12T09:43:13.763Z,26.77
2019-05-12T09:45:52.083Z,25.44
2019-05-12T09:48:14.130Z,26.93
2019-05-12T09:50:46.170Z,27.21
2019-05-12T09:53:14.370Z,27.40
2019-05-12T09:55:43.970Z,25.90
2019-05-12T09:58:15.806Z,26.65
2019-05-12T10:00:43.508Z,26.37
2019-05-12T10:03:13.877Z,27.00
2019-05-12T10:05:44.266Z,28.36
2019-05-12T10:08:13.887Z,27.05
2019-05-12T10:10:46.763Z,27.43
2019-05-12T10:13:14.271Z,27.50
2019-05-12T10:15:42.869Z,30.75
2019-05-12T10:18:12.073Z,30.62
2019-05-12T10:20:43.913Z,32.51
2019-05-12T10:23:18.266Z,31.21
2019-05-12T10:25:44.634Z,30.34
2019-05-12T10:28:15.785Z,28.40
2019-05-12T10:30:47.318Z,25.82
2019-05-12T10:33:13.893Z,27.35
2019-05-12T10:35:43.862Z,30.46
2019-05-12T10:38:13.647Z,31.33
2019-05-12T10:40:44.476Z,31.43
2019-05-12T10:43:12.905Z,26.67
2019-05-12T10:45:44.059Z,24.07
2019-05-12T10:48:14.138Z,21.97
2019-05-12T10:50:44.243Z,21.03
2019-05-12T10:53:15.802Z,24.50
2019-05-12T10:55:44.155Z,26.81
2019-05-12T10:58:14.538Z,30.33
2019-05-12T11:00:44.346Z,29.68
2019-05-12T11:03:15.446Z,31.41
2019-05-12T11:05:44.118Z,29.67
2019-05-12T11:08:14.268Z,25.88
2019-05-12T11:10:43.303Z,23.99
2019-05-12T11:13:14.527Z,21.55
2019-05-12T11:15:46.215Z,20.58
2019-05-12T11:18:20.640Z,22.28
2019-05-12T11:20:47.756Z,25.41
2019-05-12T11:23:16.412Z,24.87
2019-05-12T11:25:45.155Z,26.24
2019-05-12T11:28:14.163Z,26.39
2019-05-12T11:30:43.704Z,26.77
2019-05-12T11:33:12.536Z,27.23
2019-05-12T11:35:43.343Z,27.43
2019-05-12T11:38:13.474Z,27.98
2019-05-12T11:40:43.731Z,26.56
2019-05-12T11:43:14.312Z,26.74
2019-05-12T11:45:44.180Z,28.65
2019-05-12T11:48:14.366Z,28.90
2019-05-12T11:50:49.390Z,28.49
2019-05-12T11:53:13.870Z,27.83
2019-05-12T11:55:43.728Z,27.96
2019-05-12T11:58:12.554Z,27.02
2019-05-12T12:00:44.108Z,27.35
2019-05-12T12:03:17.000Z,28.41
2019-05-12T12:05:44.312Z,27.91
2019-05-12T12:08:14.514Z,27.63
2019-05-12T12:10:43.493Z,27.79
2019-05-12T12:13:14.107Z,28.09
2019-05-12T12:15:42.421Z,27.40
2019-05-12T12:18:13.452Z,28.02
2019-05-12T12:20:44.250Z,27.63
2019-05-12T12:23:14.079Z,28.38
2019-05-12T12:25:47.809Z,28.02
2019-05-12T12:28:13.716Z,28.69
2019-05-12T12:30:47.428Z,29.08
2019-05-12T12:33:14.371Z,28.83
2019-05-12T12:35:44.507Z,27.01
2019-05-12T12:38:14.227Z,27.27
2019-05-12T12:40:44.203Z,28.61
2019-05-12T12:43:13.754Z,27.30
2019-05-12T12:45:48.368Z,26.81
2019-05-12T12:48:19.195Z,26.07
2019-05-12T12:50:47.425Z,27.27
2019-05-12T12:53:16.075Z,26.96
2019-05-12T12:55:45.239Z,28.16
2019-05-12T12:58:14.184Z,29.46
2019-05-12T13:00:47.819Z,29.55
2019-05-12T13:03:14.440Z,28.55
2019-05-12T13:05:43.837Z,27.63
2019-05-12T13:08:12.598Z,27.55
2019-05-12T13:10:49.481Z,27.45
2019-05-12T13:13:14.217Z,27.01
2019-05-12T13:15:44.396Z,26.84
2019-05-12T13:18:17.451Z,25.11
2019-05-12T13:20:43.981Z,26.76
2019-05-12T13:23:14.142Z,27.64
2019-05-12T13:25:50.418Z,28.27
2019-05-12T13:28:18.864Z,28.68
2019-05-12T13:30:48.826Z,27.40
2019-05-12T13:33:18.095Z,27.62
2019-05-12T13:35:44.684Z,27.07
2019-05-12T13:38:14.498Z,27.20
2019-05-12T13:40:44.217Z,28.53
2019-05-12T13:43:15.466Z,27.07
2019-05-12T13:45:44.021Z,26.85
2019-05-12T13:48:15.792Z,26.91
2019-05-12T13:50:43.436Z,26.47
2019-05-12T13:53:13.853Z,27.17
2019-05-12T13:55:47.445Z,27.44
2019-05-12T13:58:13.603Z,28.40
2019-05-12T14:00:50.895Z,27.92
2019-05-12T14:03:13.987Z,27.02
2019-05-12T14:05:50.371Z,25.90
2019-05-12T14:08:14.613Z,26.34
2019-05-12T14:10:52.874Z,26.89
2019-05-12T14:13:14.105Z,25.31
2019-05-12T14:15:44.320Z,24.86
2019-05-12T14:18:16.459Z,26.48
2019-05-12T14:20:45.194Z,27.53
2019-05-12T14:23:14.920Z,26.31
2019-05-12T14:25:43.856Z,26.05
2019-05-12T14:28:16.230Z,27.31
2019-05-12T14:30:49.737Z,28.71
2019-05-12T14:33:13.449Z,27.83
2019-05-12T14:35:45.365Z,28.25
2019-05-12T14:38:14.236Z,28.25
2019-05-12T14:40:42.909Z,29.15
2019-05-12T14:43:16.812Z,28.03
2019-05-12T14:45:43.913Z,27.95
2019-05-12T14:48:13.702Z,26.74
2019-05-12T14:50:44.149Z,28.09
2019-05-12T14:53:14.459Z,28.19
2019-05-12T14:55:43.354Z,28.79
2019-05-12T14:58:15.741Z,29.63
2019-05-12T15:00:44.580Z,31.03
2019-05-12T15:03:16.154Z,29.37
2019-05-12T15:05:47.236Z,30.90
2019-05-12T15:08:20.250Z,31.45
2019-05-12T15:10:44.141Z,29.87
2019-05-12T15:13:13.908Z,30.74
2019-05-12T15:15:44.097Z,30.15
2019-05-12T15:18:15.513Z,29.68
2019-05-12T15:20:49.782Z,30.65
2019-05-12T15:23:14.416Z,30.35
2019-05-12T15:25:43.383Z,30.08
2019-05-12T15:28:14.433Z,30.58
2019-05-12T15:30:43.603Z,31.18
2019-05-12T15:33:13.928Z,30.18
2019-05-12T15:35:43.904Z,30.65
2019-05-12T15:38:14.900Z,30.40
2019-05-12T15:40:43.447Z,32.42
2019-05-12T15:43:13.817Z,32.32
2019-05-12T15:45:43.648Z,31.07
2019-05-12T15:48:14.568Z,31.99
2019-05-12T15:50:45.635Z,29.89
2019-05-12T15:53:21.793Z,30.68
2019-05-12T15:55:43.956Z,29.84
2019-05-12T15:58:14.201Z,29.62
2019-05-12T16:00:43.847Z,28.77
2019-05-12T16:03:12.680Z,28.01
2019-05-12T16:05:41.300Z,26.91
2019-05-12T16:08:09.953Z,27.41
2019-05-12T16:10:38.855Z,29.19
2019-05-12T16:13:07.779Z,30.26
2019-05-12T16:15:36.646Z,28.98
2019-05-12T16:18:09.862Z,29.05
2019-05-12T16:20:35.997Z,29.98
2019-05-12T16:23:04.711Z,29.40
2019-05-12T16:25:34.167Z,29.63
2019-05-12T16:28:07.572Z,30.45
2019-05-12T16:30:33.968Z,31.62
2019-05-12T16:33:03.599Z,29.82
2019-05-12T16:35:34.483Z,30.84
2019-05-12T16:38:05.852Z,29.48
2019-05-12T16:40:34.427Z,29.71
2019-05-12T16:43:03.968Z,29.27
2019-05-12T16:45:34.066Z,29.21
2019-05-12T16:48:05.599Z,31.35
2019-05-12T16:50:34.543Z,31.02
2019-05-12T16:53:03.382Z,30.15
2019-05-12T16:55:44.948Z,29.88
2019-05-12T16:58:03.960Z,29.81
2019-05-12T17:00:33.872Z,30.36
2019-05-12T17:03:03.768Z,29.91
2019-05-12T17:05:33.546Z,32.13
2019-05-12T17:08:04.221Z,31.58
2019-05-12T17:10:33.788Z,32.09
2019-05-12T17:13:07.484Z,32.27
2019-05-12T17:15:33.816Z,33.74
2019-05-12T17:18:04.358Z,31.40
2019-05-12T17:20:33.455Z,32.43
2019-05-12T17:23:03.439Z,31.97
2019-05-12T17:25:34.216Z,32.62
2019-05-12T17:28:03.673Z,32.28
2019-05-12T17:30:34.384Z,33.40
2019-05-12T17:33:05.242Z,34.24
2019-05-12T17:35:35.025Z,33.06
2019-05-12T17:38:04.464Z,32.74
2019-05-12T17:40:33.938Z,31.89
2019-05-12T17:43:06.804Z,32.53
2019-05-12T17:45:33.218Z,33.07
2019-05-12T17:48:05.930Z,32.92
2019-05-12T17:50:34.442Z,33.04
2019-05-12T17:53:04.544Z,33.18
2019-05-12T17:55:33.489Z,32.94
2019-05-12T17:58:04.115Z,32.68
2019-05-12T18:00:33.619Z,32.71
2019-05-12T18:03:15.511Z,33.45
2019-05-12T18:05:33.944Z,33.55
2019-05-12T18:08:04.238Z,34.55
2019-05-12T18:10:37.862Z,34.54
2019-05-12T18:13:03.992Z,33.90
2019-05-12T18:15:37.916Z,33.25
2019-05-12T18:18:04.205Z,34.88
2019-05-12T18:20:40.071Z,32.93
2019-05-12T18:23:04.381Z,33.21
2019-05-12T18:25:36.523Z,34.15
2019-05-12T18:28:03.975Z,33.53
2019-05-12T18:30:32.637Z,33.71
2019-05-12T18:33:08.709Z,34.70
2019-05-12T18:35:31.848Z,35.28
2019-05-12T18:38:00.560Z,35.77
2019-05-12T18:40:29.376Z,35.67
2019-05-12T18:42:58.099Z,36.21
2019-05-12T18:45:27.020Z,37.18
2019-05-12T18:47:55.708Z,38.46
2019-05-12T18:50:27.091Z,39.04
2019-05-12T18:52:56.296Z,39.04
2019-05-12T18:55:29.155Z,39.06
2019-05-12T18:57:55.791Z,39.23
2019-05-12T19:00:25.898Z,39.64
2019-05-12T19:02:59.689Z,39.64
2019-05-12T19:05:30.582Z,38.98
2019-05-12T19:07:56.338Z,39.81
2019-05-12T19:10:25.090Z,40.20
2019-05-12T19:13:01.157Z,40.20
2019-05-12T19:15:24.473Z,40.84
2019-05-12T19:17:54.197Z,39.88
2019-05-12T19:20:24.061Z,38.61
2019-05-12T19:22:59.358Z,38.61
2019-05-12T19:25:23.995Z,39.56
2019-05-12T19:28:04.560Z,40.50
2019-05-12T19:30:25.453Z,40.32
2019-05-12T19:32:54.747Z,38.83
2019-05-12T19:35:23.824Z,38.82
2019-05-12T19:37:53.814Z,39.31
2019-05-12T19:40:23.232Z,38.86
2019-05-12T19:42:53.679Z,39.78
2019-05-12T19:45:24.892Z,41.74
2019-05-12T19:47:53.539Z,42.18
2019-05-12T19:50:22.321Z,43.42
2019-05-12T19:52:50.998Z,43.65
2019-05-12T19:55:20.238Z,44.81
2019-05-12T19:57:50.173Z,44.67
2019-05-12T20:00:19.259Z,43.65
2019-05-12T20:02:48.249Z,43.35
2019-05-12T20:05:17.755Z,42.30
2019-05-12T20:07:46.396Z,42.94
2019-05-12T20:10:16.559Z,42.69
2019-05-12T20:12:57.055Z,42.53
2019-05-12T20:15:30.174Z,42.95
2019-05-12T20:17:57.252Z,44.71
2019-05-12T20:20:35.798Z,43.90
2019-05-12T20:22:56.293Z,42.78
2019-05-12T20:25:24.896Z,42.89
2019-05-12T20:27:56.118Z,42.37
2019-05-12T20:30:24.229Z,42.68
2019-05-12T20:32:54.038Z,42.89
2019-05-12T20:35:22.937Z,41.24
2019-05-12T20:37:54.520Z,40.58
2019-05-12T20:40:23.919Z,40.82
2019-05-12T20:43:07.383Z,39.98
2019-05-12T20:45:25.824Z,40.01
2019-05-12T20:47:53.811Z,39.25
2019-05-12T20:50:24.322Z,39.41
2019-05-12T20:52:58.807Z,38.66
2019-05-12T20:55:23.553Z,39.54
2019-05-12T20:57:56.032Z,38.49
2019-05-12T21:00:24.404Z,38.59
2019-05-12T21:02:53.947Z,37.81
2019-05-12T21:05:23.765Z,37.99
2019-05-12T21:07:55.879Z,38.47
2019-05-12T21:10:26.407Z,38.01
2019-05-12T21:12:54.288Z,38.29
2019-05-12T21:15:27.748Z,38.59
2019-05-12T21:18:02.586Z,38.49
2019-05-12T21:20:24.370Z,38.26
2019-05-12T21:22:53.823Z,38.37
2019-05-12T21:25:23.360Z,38.97
2019-05-12T21:27:53.732Z,37.48
2019-05-12T21:30:24.658Z,36.77
2019-05-12T21:33:01.127Z,36.86
2019-05-12T21:35:26.018Z,39.66
2019-05-12T21:37:54.784Z,37.88
2019-05-12T21:40:30.207Z,38.24
2019-05-12T21:42:54.367Z,37.34
2019-05-12T21:45:26.589Z,36.92
2019-05-12T21:47:54.508Z,37.61
2019-05-12T21:50:32.576Z,38.30
2019-05-12T21:52:59.424Z,37.04
2019-05-12T21:55:26.677Z,37.75
2019-05-12T21:57:55.473Z,38.95
2019-05-12T22:00:29.137Z,38.84
2019-05-12T22:03:02.553Z,37.23
2019-05-12T22:05:47.964Z,38.06
2019-05-12T22:07:58.800Z,37.59
2019-05-12T22:10:30.733Z,36.96
2019-05-12T22:13:00.598Z,37.94
2019-05-12T22:15:29.651Z,37.63
2019-05-12T22:18:04.211Z,38.37
2019-05-12T22:20:32.306Z,37.95
2019-05-12T22:23:09.149Z,37.61
2019-05-12T22:25:34.531Z,38.40
2019-05-12T22:28:07.940Z,38.35
2019-05-12T22:30:34.934Z,38.59
2019-05-12T22:33:08.634Z,38.51
2019-05-12T22:35:34.274Z,37.96
2019-05-12T22:38:09.386Z,38.07
2019-05-12T22:40:33.454Z,38.03
2019-05-12T22:43:06.625Z,38.61
2019-05-12T22:45:44.448Z,38.98
2019-05-12T22:48:04.169Z,39.66
2019-05-12T22:50:35.174Z,39.61
2019-05-12T22:53:04.463Z,39.66
2019-05-12T22:55:36.044Z,40.02
2019-05-12T22:58:04.356Z,39.88
2019-05-12T23:00:34.133Z,39.30
2019-05-12T23:03:11.581Z,39.38
2019-05-12T23:05:33.797Z,39.75
2019-05-12T23:08:05.935Z,38.44
2019-05-12T23:10:33.119Z,38.34
2019-05-12T23:13:04.825Z,36.80
2019-05-12T23:15:33.495Z,37.17
2019-05-12T23:18:04.203Z,36.44
2019-05-12T23:20:33.330Z,34.95
2019-05-12T23:23:03.864Z,34.07
2019-05-12T23:25:33.761Z,34.06
2019-05-12T23:28:08.379Z,33.78
2019-05-12T23:30:32.840Z,33.88
2019-05-12T23:33:03.814Z,33.55
2019-05-12T23:35:34.833Z,33.63
2019-05-12T23:38:04.430Z,33.83
2019-05-12T23:40:34.529Z,33.41
2019-05-12T23:43:04.140Z,33.13
2019-05-12T23:45:34.010Z,34.70
2019-05-12T23:48:03.686Z,34.87
2019-05-12T23:50:32.736Z,34.70
2019-05-12T23:53:03.841Z,34.81
2019-05-12T23:55:34.740Z,36.21
2019-05-12T23:58:04.223Z,35.31
